sensor_id;sensor_type;location;lat;lon;timestamp;P1;durP1;ratioP1;P2;durP2;ratioP2
64252;SDS011;50592;52.958;-7.470;2023-04-26T00:02:26;16.80;;;5.70;;
64252;SDS011;50592;52.958;-7.470;2023-04-26T00:04:52;17.42;;;6.03;;
64252;SDS011;50592;52.958;-7.470;2023-04-26T00:07:23;16.83;;;6.65;;
64252;SDS011;50592;52.958;-7.470;2023-04-26T00:09:49;11.10;;;5.38;;
64252;SDS011;50592;52.958;-7.470;2023-04-26T00:12:19;18.63;;;5.53;;
64252;SDS011;50592;52.958;-7.470;2023-04-26T00:14:46;11.13;;;4.65;;
64252;SDS011;50592;52.958;-7.470;2023-04-26T00:17:12;11.43;;;4.35;;
64252;SDS011;50592;52.958;-7.470;2023-04-26T00:19:37;12.38;;;4.03;;
64252;SDS011;50592;52.958;-7.470;2023-04-26T00:22:04;13.75;;;3.97;;
64252;SDS011;50592;52.958;-7.470;2023-04-26T00:24:30;10.80;;;4.20;;
64252;SDS011;50592;52.958;-7.470;2023-04-26T00:26:57;11.05;;;4.40;;
64252;SDS011;50592;52.958;-7.470;2023-04-26T00:29:22;7.78;;;3.55;;
64252;SDS011;50592;52.958;-7.470;2023-04-26T00:31:48;7.68;;;3.25;;
64252;SDS011;50592;52.958;-7.470;2023-04-26T00:34:14;10.60;;;4.07;;
64252;SDS011;50592;52.958;-7.470;2023-04-26T00:36:41;6.25;;;3.75;;
64252;SDS011;50592;52.958;-7.470;2023-04-26T00:39:06;7.65;;;4.13;;
64252;SDS011;50592;52.958;-7.470;2023-04-26T00:41:33;8.75;;;3.90;;
64252;SDS011;50592;52.958;-7.470;2023-04-26T00:43:59;17.20;;;3.95;;
64252;SDS011;50592;52.958;-7.470;2023-04-26T00:46:25;15.98;;;4.70;;
64252;SDS011;50592;52.958;-7.470;2023-04-26T00:48:53;13.35;;;4.47;;
64252;SDS011;50592;52.958;-7.470;2023-04-26T00:51:20;10.63;;;4.13;;
64252;SDS011;50592;52.958;-7.470;2023-04-26T00:53:46;9.77;;;3.92;;
64252;SDS011;50592;52.958;-7.470;2023-04-26T00:56:13;11.73;;;5.05;;
64252;SDS011;50592;52.958;-7.470;2023-04-26T00:58:40;10.50;;;3.90;;
64252;SDS011;50592;52.958;-7.470;2023-04-26T01:01:06;8.57;;;3.78;;
64252;SDS011;50592;52.958;-7.470;2023-04-26T01:03:32;9.55;;;3.92;;
64252;SDS011;50592;52.958;-7.470;2023-04-26T01:05:59;10.18;;;4.20;;
64252;SDS011;50592;52.958;-7.470;2023-04-26T01:08:25;10.05;;;4.47;;
64252;SDS011;50592;52.958;-7.470;2023-04-26T01:10:52;9.68;;;3.47;;
64252;SDS011;50592;52.958;-7.470;2023-04-26T01:13:18;6.47;;;4.07;;
64252;SDS011;50592;52.958;-7.470;2023-04-26T01:15:45;12.05;;;3.85;;
64252;SDS011;50592;52.958;-7.470;2023-04-26T01:18:12;10.45;;;3.55;;
64252;SDS011;50592;52.958;-7.470;2023-04-26T01:20:42;8.23;;;3.35;;
64252;SDS011;50592;52.958;-7.470;2023-04-26T01:23:08;8.30;;;3.15;;
64252;SDS011;50592;52.958;-7.470;2023-04-26T01:25:37;7.13;;;3.20;;
64252;SDS011;50592;52.958;-7.470;2023-04-26T01:28:03;9.60;;;3.60;;
64252;SDS011;50592;52.958;-7.470;2023-04-26T01:30:29;9.40;;;2.92;;
64252;SDS011;50592;52.958;-7.470;2023-04-26T01:32:55;14.52;;;4.03;;
64252;SDS011;50592;52.958;-7.470;2023-04-26T01:35:21;16.25;;;3.33;;
64252;SDS011;50592;52.958;-7.470;2023-04-26T01:37:46;13.32;;;3.65;;
64252;SDS011;50592;52.958;-7.470;2023-04-26T01:40:12;6.05;;;2.58;;
64252;SDS011;50592;52.958;-7.470;2023-04-26T01:42:38;8.07;;;2.83;;
64252;SDS011;50592;52.958;-7.470;2023-04-26T01:45:04;9.18;;;3.33;;
64252;SDS011;50592;52.958;-7.470;2023-04-26T01:47:50;10.23;;;3.60;;
64252;SDS011;50592;52.958;-7.470;2023-04-26T01:50:16;14.35;;;2.85;;
64252;SDS011;50592;52.958;-7.470;2023-04-26T01:52:42;10.93;;;3.33;;
64252;SDS011;50592;52.958;-7.470;2023-04-26T01:55:08;12.50;;;2.95;;
64252;SDS011;50592;52.958;-7.470;2023-04-26T01:57:34;8.30;;;2.67;;
64252;SDS011;50592;52.958;-7.470;2023-04-26T02:00:00;8.35;;;2.63;;
64252;SDS011;50592;52.958;-7.470;2023-04-26T02:02:39;8.18;;;2.50;;
64252;SDS011;50592;52.958;-7.470;2023-04-26T02:05:07;8.23;;;2.65;;
64252;SDS011;50592;52.958;-7.470;2023-04-26T02:07:33;15.02;;;3.30;;
64252;SDS011;50592;52.958;-7.470;2023-04-26T02:09:59;13.85;;;2.55;;
64252;SDS011;50592;52.958;-7.470;2023-04-26T02:12:26;12.15;;;2.65;;
64252;SDS011;50592;52.958;-7.470;2023-04-26T02:14:52;13.57;;;3.33;;
64252;SDS011;50592;52.958;-7.470;2023-04-26T02:17:18;7.90;;;2.70;;
64252;SDS011;50592;52.958;-7.470;2023-04-26T02:19:45;12.50;;;3.50;;
64252;SDS011;50592;52.958;-7.470;2023-04-26T02:22:11;7.47;;;3.38;;
64252;SDS011;50592;52.958;-7.470;2023-04-26T02:24:40;7.38;;;3.15;;
64252;SDS011;50592;52.958;-7.470;2023-04-26T02:27:06;8.32;;;3.00;;
64252;SDS011;50592;52.958;-7.470;2023-04-26T02:29:33;11.68;;;3.83;;
64252;SDS011;50592;52.958;-7.470;2023-04-26T02:32:01;5.85;;;2.63;;
64252;SDS011;50592;52.958;-7.470;2023-04-26T02:34:28;8.48;;;2.88;;
64252;SDS011;50592;52.958;-7.470;2023-04-26T02:36:54;9.00;;;2.83;;
64252;SDS011;50592;52.958;-7.470;2023-04-26T02:39:20;12.63;;;3.25;;
64252;SDS011;50592;52.958;-7.470;2023-04-26T02:41:46;7.90;;;2.40;;
64252;SDS011;50592;52.958;-7.470;2023-04-26T02:44:12;10.23;;;2.88;;
64252;SDS011;50592;52.958;-7.470;2023-04-26T02:46:38;14.43;;;2.67;;
64252;SDS011;50592;52.958;-7.470;2023-04-26T02:49:04;8.68;;;2.38;;
64252;SDS011;50592;52.958;-7.470;2023-04-26T02:51:30;5.55;;;2.38;;
64252;SDS011;50592;52.958;-7.470;2023-04-26T02:53:58;7.72;;;2.20;;
64252;SDS011;50592;52.958;-7.470;2023-04-26T02:56:24;8.25;;;2.53;;
64252;SDS011;50592;52.958;-7.470;2023-04-26T02:58:50;5.43;;;2.63;;
64252;SDS011;50592;52.958;-7.470;2023-04-26T03:01:16;8.93;;;2.80;;
64252;SDS011;50592;52.958;-7.470;2023-04-26T03:03:43;9.38;;;2.63;;
64252;SDS011;50592;52.958;-7.470;2023-04-26T03:06:09;9.60;;;3.30;;
64252;SDS011;50592;52.958;-7.470;2023-04-26T03:08:34;9.00;;;2.50;;
64252;SDS011;50592;52.958;-7.470;2023-04-26T03:11:01;8.23;;;2.78;;
64252;SDS011;50592;52.958;-7.470;2023-04-26T03:13:28;11.40;;;2.60;;
64252;SDS011;50592;52.958;-7.470;2023-04-26T03:15:55;8.27;;;2.35;;
64252;SDS011;50592;52.958;-7.470;2023-04-26T03:18:21;10.75;;;2.22;;
64252;SDS011;50592;52.958;-7.470;2023-04-26T03:20:47;10.57;;;2.42;;
64252;SDS011;50592;52.958;-7.470;2023-04-26T03:23:13;6.13;;;2.45;;
64252;SDS011;50592;52.958;-7.470;2023-04-26T03:25:39;7.88;;;2.88;;
64252;SDS011;50592;52.958;-7.470;2023-04-26T03:28:05;4.30;;;2.20;;
64252;SDS011;50592;52.958;-7.470;2023-04-26T03:30:31;6.90;;;2.15;;
64252;SDS011;50592;52.958;-7.470;2023-04-26T03:32:57;7.15;;;3.17;;
64252;SDS011;50592;52.958;-7.470;2023-04-26T03:35:23;3.83;;;2.10;;
64252;SDS011;50592;52.958;-7.470;2023-04-26T03:37:49;9.13;;;2.13;;
64252;SDS011;50592;52.958;-7.470;2023-04-26T03:40:16;5.97;;;2.83;;
64252;SDS011;50592;52.958;-7.470;2023-04-26T03:42:44;4.70;;;2.15;;
64252;SDS011;50592;52.958;-7.470;2023-04-26T03:45:10;6.07;;;1.88;;
64252;SDS011;50592;52.958;-7.470;2023-04-26T03:47:36;11.80;;;2.38;;
64252;SDS011;50592;52.958;-7.470;2023-04-26T03:50:02;5.70;;;2.03;;
64252;SDS011;50592;52.958;-7.470;2023-04-26T03:52:28;5.38;;;2.15;;
64252;SDS011;50592;52.958;-7.470;2023-04-26T03:54:55;7.95;;;2.28;;
64252;SDS011;50592;52.958;-7.470;2023-04-26T03:57:20;9.15;;;2.60;;
64252;SDS011;50592;52.958;-7.470;2023-04-26T03:59:46;8.07;;;2.75;;
64252;SDS011;50592;52.958;-7.470;2023-04-26T04:02:12;8.18;;;2.35;;
64252;SDS011;50592;52.958;-7.470;2023-04-26T04:04:39;5.00;;;2.55;;
64252;SDS011;50592;52.958;-7.470;2023-04-26T04:07:05;6.55;;;2.38;;
64252;SDS011;50592;52.958;-7.470;2023-04-26T04:09:31;9.88;;;1.95;;
64252;SDS011;50592;52.958;-7.470;2023-04-26T04:11:57;7.07;;;2.17;;
64252;SDS011;50592;52.958;-7.470;2023-04-26T04:14:24;10.45;;;2.42;;
64252;SDS011;50592;52.958;-7.470;2023-04-26T04:16:50;5.95;;;2.05;;
64252;SDS011;50592;52.958;-7.470;2023-04-26T04:19:15;10.98;;;3.58;;
64252;SDS011;50592;52.958;-7.470;2023-04-26T04:21:43;11.73;;;2.22;;
64252;SDS011;50592;52.958;-7.470;2023-04-26T04:24:09;6.18;;;2.80;;
64252;SDS011;50592;52.958;-7.470;2023-04-26T04:26:35;10.25;;;2.65;;
64252;SDS011;50592;52.958;-7.470;2023-04-26T04:29:02;8.60;;;2.70;;
64252;SDS011;50592;52.958;-7.470;2023-04-26T04:31:35;9.23;;;2.78;;
64252;SDS011;50592;52.958;-7.470;2023-04-26T04:34:01;3.83;;;2.47;;
64252;SDS011;50592;52.958;-7.470;2023-04-26T04:36:27;9.63;;;2.50;;
64252;SDS011;50592;52.958;-7.470;2023-04-26T04:38:53;8.10;;;2.63;;
64252;SDS011;50592;52.958;-7.470;2023-04-26T04:41:19;7.35;;;2.53;;
64252;SDS011;50592;52.958;-7.470;2023-04-26T04:43:46;5.65;;;2.50;;
64252;SDS011;50592;52.958;-7.470;2023-04-26T04:46:12;10.05;;;2.97;;
64252;SDS011;50592;52.958;-7.470;2023-04-26T04:48:38;7.07;;;2.00;;
64252;SDS011;50592;52.958;-7.470;2023-04-26T04:51:05;12.88;;;2.78;;
64252;SDS011;50592;52.958;-7.470;2023-04-26T04:53:31;9.15;;;2.33;;
64252;SDS011;50592;52.958;-7.470;2023-04-26T04:55:57;4.85;;;2.58;;
64252;SDS011;50592;52.958;-7.470;2023-04-26T04:58:23;9.00;;;2.35;;
64252;SDS011;50592;52.958;-7.470;2023-04-26T05:00:49;4.30;;;2.42;;
64252;SDS011;50592;52.958;-7.470;2023-04-26T05:03:27;12.30;;;2.65;;
64252;SDS011;50592;52.958;-7.470;2023-04-26T05:05:53;14.90;;;3.10;;
64252;SDS011;50592;52.958;-7.470;2023-04-26T05:08:19;5.60;;;2.25;;
64252;SDS011;50592;52.958;-7.470;2023-04-26T05:10:46;5.82;;;2.60;;
64252;SDS011;50592;52.958;-7.470;2023-04-26T05:13:12;9.15;;;2.72;;
64252;SDS011;50592;52.958;-7.470;2023-04-26T05:15:38;6.55;;;2.60;;
64252;SDS011;50592;52.958;-7.470;2023-04-26T05:18:04;8.82;;;2.50;;
64252;SDS011;50592;52.958;-7.470;2023-04-26T05:20:31;5.38;;;2.33;;
64252;SDS011;50592;52.958;-7.470;2023-04-26T05:22:56;11.55;;;2.67;;
64252;SDS011;50592;52.958;-7.470;2023-04-26T05:25:22;6.53;;;2.40;;
64252;SDS011;50592;52.958;-7.470;2023-04-26T05:27:53;12.00;;;2.80;;
64252;SDS011;50592;52.958;-7.470;2023-04-26T05:30:45;6.28;;;2.25;;
64252;SDS011;50592;52.958;-7.470;2023-04-26T05:33:24;6.13;;;2.35;;
64252;SDS011;50592;52.958;-7.470;2023-04-26T05:35:55;6.95;;;2.80;;
64252;SDS011;50592;52.958;-7.470;2023-04-26T05:38:23;6.88;;;2.80;;
64252;SDS011;50592;52.958;-7.470;2023-04-26T05:40:49;6.55;;;2.20;;
64252;SDS011;50592;52.958;-7.470;2023-04-26T05:43:15;5.82;;;2.30;;
64252;SDS011;50592;52.958;-7.470;2023-04-26T05:45:51;11.07;;;2.50;;
64252;SDS011;50592;52.958;-7.470;2023-04-26T05:48:21;4.75;;;2.25;;
64252;SDS011;50592;52.958;-7.470;2023-04-26T05:50:48;5.82;;;2.30;;
64252;SDS011;50592;52.958;-7.470;2023-04-26T05:53:14;11.90;;;2.25;;
64252;SDS011;50592;52.958;-7.470;2023-04-26T05:55:41;6.90;;;2.22;;
64252;SDS011;50592;52.958;-7.470;2023-04-26T05:58:07;7.15;;;2.75;;
64252;SDS011;50592;52.958;-7.470;2023-04-26T06:00:34;4.97;;;2.55;;
64252;SDS011;50592;52.958;-7.470;2023-04-26T06:03:01;9.57;;;2.25;;
64252;SDS011;50592;52.958;-7.470;2023-04-26T06:05:27;4.85;;;2.28;;
64252;SDS011;50592;52.958;-7.470;2023-04-26T06:07:53;11.95;;;4.13;;
64252;SDS011;50592;52.958;-7.470;2023-04-26T06:10:19;12.45;;;2.75;;
64252;SDS011;50592;52.958;-7.470;2023-04-26T06:12:45;7.38;;;2.13;;
64252;SDS011;50592;52.958;-7.470;2023-04-26T06:15:11;7.30;;;2.50;;
64252;SDS011;50592;52.958;-7.470;2023-04-26T06:17:38;9.70;;;2.58;;
64252;SDS011;50592;52.958;-7.470;2023-04-26T06:20:05;9.52;;;2.83;;
64252;SDS011;50592;52.958;-7.470;2023-04-26T06:22:31;9.77;;;2.45;;
64252;SDS011;50592;52.958;-7.470;2023-04-26T06:24:57;7.18;;;2.53;;
64252;SDS011;50592;52.958;-7.470;2023-04-26T06:27:22;3.95;;;2.20;;
64252;SDS011;50592;52.958;-7.470;2023-04-26T06:29:48;7.20;;;2.83;;
64252;SDS011;50592;52.958;-7.470;2023-04-26T06:32:16;11.13;;;3.35;;
64252;SDS011;50592;52.958;-7.470;2023-04-26T06:34:42;6.68;;;3.03;;
64252;SDS011;50592;52.958;-7.470;2023-04-26T06:37:10;12.27;;;3.75;;
64252;SDS011;50592;52.958;-7.470;2023-04-26T06:39:39;8.30;;;2.42;;
64252;SDS011;50592;52.958;-7.470;2023-04-26T06:42:05;8.55;;;2.78;;
64252;SDS011;50592;52.958;-7.470;2023-04-26T06:44:57;8.57;;;3.25;;
64252;SDS011;50592;52.958;-7.470;2023-04-26T06:47:23;10.55;;;3.10;;
64252;SDS011;50592;52.958;-7.470;2023-04-26T06:49:49;9.38;;;2.83;;
64252;SDS011;50592;52.958;-7.470;2023-04-26T06:52:16;10.05;;;2.85;;
64252;SDS011;50592;52.958;-7.470;2023-04-26T06:54:41;10.63;;;2.60;;
64252;SDS011;50592;52.958;-7.470;2023-04-26T06:57:07;6.55;;;2.20;;
64252;SDS011;50592;52.958;-7.470;2023-04-26T06:59:33;7.60;;;2.47;;
64252;SDS011;50592;52.958;-7.470;2023-04-26T07:01:59;10.65;;;2.53;;
64252;SDS011;50592;52.958;-7.470;2023-04-26T07:04:26;11.23;;;2.60;;
64252;SDS011;50592;52.958;-7.470;2023-04-26T07:06:52;8.73;;;3.22;;
64252;SDS011;50592;52.958;-7.470;2023-04-26T07:09:18;10.40;;;2.97;;
64252;SDS011;50592;52.958;-7.470;2023-04-26T07:11:47;12.88;;;2.67;;
64252;SDS011;50592;52.958;-7.470;2023-04-26T07:14:12;8.32;;;2.60;;
64252;SDS011;50592;52.958;-7.470;2023-04-26T07:16:38;5.63;;;2.90;;
64252;SDS011;50592;52.958;-7.470;2023-04-26T07:19:05;14.32;;;2.40;;
64252;SDS011;50592;52.958;-7.470;2023-04-26T07:21:31;8.02;;;2.63;;
64252;SDS011;50592;52.958;-7.470;2023-04-26T07:23:57;6.18;;;2.22;;
64252;SDS011;50592;52.958;-7.470;2023-04-26T07:26:23;9.20;;;2.20;;
64252;SDS011;50592;52.958;-7.470;2023-04-26T07:28:50;12.23;;;2.63;;
64252;SDS011;50592;52.958;-7.470;2023-04-26T07:31:17;8.80;;;2.95;;
64252;SDS011;50592;52.958;-7.470;2023-04-26T07:33:45;12.10;;;3.20;;
64252;SDS011;50592;52.958;-7.470;2023-04-26T07:36:11;7.78;;;4.05;;
64252;SDS011;50592;52.958;-7.470;2023-04-26T07:38:37;11.70;;;3.00;;
64252;SDS011;50592;52.958;-7.470;2023-04-26T07:41:03;8.38;;;3.05;;
64252;SDS011;50592;52.958;-7.470;2023-04-26T07:43:29;6.43;;;2.67;;
64252;SDS011;50592;52.958;-7.470;2023-04-26T07:45:59;14.45;;;2.80;;
64252;SDS011;50592;52.958;-7.470;2023-04-26T07:48:26;7.53;;;2.28;;
64252;SDS011;50592;52.958;-7.470;2023-04-26T07:50:52;8.18;;;3.20;;
64252;SDS011;50592;52.958;-7.470;2023-04-26T07:53:20;9.93;;;2.42;;
64252;SDS011;50592;52.958;-7.470;2023-04-26T07:55:46;8.55;;;2.80;;
64252;SDS011;50592;52.958;-7.470;2023-04-26T07:58:12;11.25;;;2.75;;
64252;SDS011;50592;52.958;-7.470;2023-04-26T08:00:41;13.13;;;2.42;;
64252;SDS011;50592;52.958;-7.470;2023-04-26T08:03:07;6.20;;;2.10;;
64252;SDS011;50592;52.958;-7.470;2023-04-26T08:05:33;11.27;;;2.70;;
64252;SDS011;50592;52.958;-7.470;2023-04-26T08:07:59;8.02;;;2.10;;
64252;SDS011;50592;52.958;-7.470;2023-04-26T08:10:28;6.25;;;2.30;;
64252;SDS011;50592;52.958;-7.470;2023-04-26T08:12:54;8.40;;;1.95;;
64252;SDS011;50592;52.958;-7.470;2023-04-26T08:15:21;10.98;;;3.25;;
64252;SDS011;50592;52.958;-7.470;2023-04-26T08:17:47;7.60;;;2.80;;
64252;SDS011;50592;52.958;-7.470;2023-04-26T08:20:17;9.68;;;2.17;;
64252;SDS011;50592;52.958;-7.470;2023-04-26T08:22:43;8.88;;;2.10;;
64252;SDS011;50592;52.958;-7.470;2023-04-26T08:25:08;13.65;;;2.80;;
64252;SDS011;50592;52.958;-7.470;2023-04-26T08:27:35;7.97;;;1.80;;
64252;SDS011;50592;52.958;-7.470;2023-04-26T08:30:01;12.60;;;2.50;;
64252;SDS011;50592;52.958;-7.470;2023-04-26T08:32:28;10.40;;;2.10;;
64252;SDS011;50592;52.958;-7.470;2023-04-26T08:34:55;12.23;;;2.28;;
64252;SDS011;50592;52.958;-7.470;2023-04-26T08:37:21;9.02;;;2.13;;
64252;SDS011;50592;52.958;-7.470;2023-04-26T08:39:46;15.05;;;2.40;;
64252;SDS011;50592;52.958;-7.470;2023-04-26T08:42:13;8.63;;;2.33;;
64252;SDS011;50592;52.958;-7.470;2023-04-26T08:44:41;13.02;;;2.22;;
64252;SDS011;50592;52.958;-7.470;2023-04-26T08:47:09;9.48;;;1.90;;
64252;SDS011;50592;52.958;-7.470;2023-04-26T08:49:41;11.23;;;2.13;;
64252;SDS011;50592;52.958;-7.470;2023-04-26T08:52:09;9.73;;;2.15;;
64252;SDS011;50592;52.958;-7.470;2023-04-26T08:54:37;11.88;;;2.20;;
64252;SDS011;50592;52.958;-7.470;2023-04-26T08:57:04;9.73;;;1.75;;
64252;SDS011;50592;52.958;-7.470;2023-04-26T08:59:32;10.90;;;2.22;;
64252;SDS011;50592;52.958;-7.470;2023-04-26T09:02:02;9.90;;;2.40;;
64252;SDS011;50592;52.958;-7.470;2023-04-26T09:04:30;12.80;;;1.95;;
64252;SDS011;50592;52.958;-7.470;2023-04-26T09:06:59;9.75;;;2.20;;
64252;SDS011;50592;52.958;-7.470;2023-04-26T09:09:28;10.60;;;2.03;;
64252;SDS011;50592;52.958;-7.470;2023-04-26T09:11:59;7.85;;;2.30;;
64252;SDS011;50592;52.958;-7.470;2023-04-26T09:14:27;8.95;;;2.25;;
64252;SDS011;50592;52.958;-7.470;2023-04-26T09:16:53;10.60;;;2.22;;
64252;SDS011;50592;52.958;-7.470;2023-04-26T09:22:07;11.13;;;2.10;;
64252;SDS011;50592;52.958;-7.470;2023-04-26T09:24:51;7.13;;;2.15;;
64252;SDS011;50592;52.958;-7.470;2023-04-26T09:27:17;8.80;;;2.28;;
64252;SDS011;50592;52.958;-7.470;2023-04-26T09:29:56;13.57;;;2.58;;
64252;SDS011;50592;52.958;-7.470;2023-04-26T09:35:29;10.02;;;2.70;;
64252;SDS011;50592;52.958;-7.470;2023-04-26T09:37:58;10.90;;;2.42;;
64252;SDS011;50592;52.958;-7.470;2023-04-26T09:40:24;4.50;;;1.38;;
64252;SDS011;50592;52.958;-7.470;2023-04-26T09:42:55;11.23;;;2.63;;
64252;SDS011;50592;52.958;-7.470;2023-04-26T09:45:24;12.68;;;1.95;;
64252;SDS011;50592;52.958;-7.470;2023-04-26T09:47:50;8.07;;;2.08;;
64252;SDS011;50592;52.958;-7.470;2023-04-26T09:50:29;13.80;;;3.60;;
64252;SDS011;50592;52.958;-7.470;2023-04-26T09:52:56;9.00;;;1.88;;
64252;SDS011;50592;52.958;-7.470;2023-04-26T09:55:25;5.00;;;1.95;;
64252;SDS011;50592;52.958;-7.470;2023-04-26T09:57:53;10.43;;;2.45;;
64252;SDS011;50592;52.958;-7.470;2023-04-26T10:00:25;8.15;;;2.17;;
64252;SDS011;50592;52.958;-7.470;2023-04-26T10:02:52;6.93;;;2.45;;
64252;SDS011;50592;52.958;-7.470;2023-04-26T10:05:19;7.80;;;1.83;;
64252;SDS011;50592;52.958;-7.470;2023-04-26T10:07:46;10.27;;;1.70;;
64252;SDS011;50592;52.958;-7.470;2023-04-26T10:10:12;5.85;;;2.03;;
64252;SDS011;50592;52.958;-7.470;2023-04-26T10:12:39;10.10;;;2.03;;
64252;SDS011;50592;52.958;-7.470;2023-04-26T10:15:10;8.60;;;2.15;;
64252;SDS011;50592;52.958;-7.470;2023-04-26T10:17:37;10.88;;;2.05;;
64252;SDS011;50592;52.958;-7.470;2023-04-26T10:20:03;13.02;;;1.88;;
64252;SDS011;50592;52.958;-7.470;2023-04-26T10:22:33;6.10;;;1.90;;
64252;SDS011;50592;52.958;-7.470;2023-04-26T10:25:04;12.40;;;1.83;;
64252;SDS011;50592;52.958;-7.470;2023-04-26T10:30:15;9.18;;;2.13;;
64252;SDS011;50592;52.958;-7.470;2023-04-26T10:35:20;8.60;;;2.37;;
64252;SDS011;50592;52.958;-7.470;2023-04-26T10:40:42;13.38;;;2.60;;
64252;SDS011;50592;52.958;-7.470;2023-04-26T10:45:39;8.57;;;2.25;;
64252;SDS011;50592;52.958;-7.470;2023-04-26T10:58:48;9.68;;;2.20;;
64252;SDS011;50592;52.958;-7.470;2023-04-26T11:01:31;9.70;;;2.10;;
64252;SDS011;50592;52.958;-7.470;2023-04-26T11:06:23;10.13;;;2.63;;
64252;SDS011;50592;52.958;-7.470;2023-04-26T11:08:49;4.82;;;1.73;;
64252;SDS011;50592;52.958;-7.470;2023-04-26T11:11:16;7.35;;;1.83;;
64252;SDS011;50592;52.958;-7.470;2023-04-26T11:13:45;6.40;;;2.30;;
64252;SDS011;50592;52.958;-7.470;2023-04-26T11:16:12;11.18;;;2.70;;
64252;SDS011;50592;52.958;-7.470;2023-04-26T11:18:39;10.52;;;2.65;;
64252;SDS011;50592;52.958;-7.470;2023-04-26T11:21:06;5.25;;;2.03;;
64252;SDS011;50592;52.958;-7.470;2023-04-26T11:23:33;6.63;;;1.88;;
64252;SDS011;50592;52.958;-7.470;2023-04-26T11:26:00;8.88;;;2.17;;
64252;SDS011;50592;52.958;-7.470;2023-04-26T11:28:31;5.10;;;2.10;;
64252;SDS011;50592;52.958;-7.470;2023-04-26T11:30:58;7.32;;;1.77;;
64252;SDS011;50592;52.958;-7.470;2023-04-26T11:33:24;12.07;;;2.75;;
64252;SDS011;50592;52.958;-7.470;2023-04-26T11:35:50;6.57;;;2.40;;
64252;SDS011;50592;52.958;-7.470;2023-04-26T11:38:23;11.43;;;2.85;;
64252;SDS011;50592;52.958;-7.470;2023-04-26T11:40:57;6.70;;;2.17;;
64252;SDS011;50592;52.958;-7.470;2023-04-26T11:43:35;12.07;;;2.33;;
64252;SDS011;50592;52.958;-7.470;2023-04-26T11:46:02;10.57;;;2.17;;
64252;SDS011;50592;52.958;-7.470;2023-04-26T11:48:32;6.82;;;1.92;;
64252;SDS011;50592;52.958;-7.470;2023-04-26T11:50:59;8.27;;;2.55;;
64252;SDS011;50592;52.958;-7.470;2023-04-26T11:53:35;14.45;;;2.65;;
64252;SDS011;50592;52.958;-7.470;2023-04-26T11:56:03;13.25;;;2.60;;
64252;SDS011;50592;52.958;-7.470;2023-04-26T11:58:30;5.55;;;2.13;;
64252;SDS011;50592;52.958;-7.470;2023-04-26T12:00:56;7.25;;;1.98;;
64252;SDS011;50592;52.958;-7.470;2023-04-26T12:03:22;8.18;;;2.70;;
64252;SDS011;50592;52.958;-7.470;2023-04-26T12:05:52;10.05;;;2.50;;
64252;SDS011;50592;52.958;-7.470;2023-04-26T12:08:25;9.15;;;2.50;;
64252;SDS011;50592;52.958;-7.470;2023-04-26T12:10:52;10.05;;;2.65;;
64252;SDS011;50592;52.958;-7.470;2023-04-26T12:13:18;8.35;;;2.88;;
64252;SDS011;50592;52.958;-7.470;2023-04-26T12:15:44;8.88;;;2.28;;
64252;SDS011;50592;52.958;-7.470;2023-04-26T12:18:12;13.77;;;2.40;;
64252;SDS011;50592;52.958;-7.470;2023-04-26T12:20:38;12.80;;;3.78;;
64252;SDS011;50592;52.958;-7.470;2023-04-26T12:23:06;5.93;;;2.30;;
64252;SDS011;50592;52.958;-7.470;2023-04-26T12:25:34;7.00;;;2.17;;
64252;SDS011;50592;52.958;-7.470;2023-04-26T12:28:05;8.20;;;2.20;;
64252;SDS011;50592;52.958;-7.470;2023-04-26T12:30:36;7.93;;;2.70;;
64252;SDS011;50592;52.958;-7.470;2023-04-26T12:33:03;9.93;;;2.92;;
64252;SDS011;50592;52.958;-7.470;2023-04-26T12:35:29;7.53;;;2.58;;
64252;SDS011;50592;52.958;-7.470;2023-04-26T12:37:56;8.25;;;2.42;;
64252;SDS011;50592;52.958;-7.470;2023-04-26T12:40:25;7.43;;;2.08;;
64252;SDS011;50592;52.958;-7.470;2023-04-26T12:42:52;8.55;;;2.35;;
64252;SDS011;50592;52.958;-7.470;2023-04-26T12:45:21;11.13;;;2.40;;
64252;SDS011;50592;52.958;-7.470;2023-04-26T12:47:52;16.25;;;2.42;;
64252;SDS011;50592;52.958;-7.470;2023-04-26T12:50:18;7.25;;;2.22;;
64252;SDS011;50592;52.958;-7.470;2023-04-26T12:52:45;13.23;;;2.25;;
64252;SDS011;50592;52.958;-7.470;2023-04-26T12:55:11;5.45;;;1.80;;
64252;SDS011;50592;52.958;-7.470;2023-04-26T12:57:41;7.50;;;2.17;;
64252;SDS011;50592;52.958;-7.470;2023-04-26T13:00:15;8.32;;;2.33;;
64252;SDS011;50592;52.958;-7.470;2023-04-26T13:02:45;10.60;;;2.30;;
64252;SDS011;50592;52.958;-7.470;2023-04-26T13:05:11;7.32;;;2.28;;
64252;SDS011;50592;52.958;-7.470;2023-04-26T13:07:38;9.25;;;2.72;;
64252;SDS011;50592;52.958;-7.470;2023-04-26T13:10:07;11.10;;;2.63;;
64252;SDS011;50592;52.958;-7.470;2023-04-26T13:12:35;12.07;;;2.67;;
64252;SDS011;50592;52.958;-7.470;2023-04-26T13:15:01;8.23;;;2.47;;
64252;SDS011;50592;52.958;-7.470;2023-04-26T13:17:27;6.28;;;2.08;;
64252;SDS011;50592;52.958;-7.470;2023-04-26T13:19:53;6.60;;;2.33;;
64252;SDS011;50592;52.958;-7.470;2023-04-26T13:22:19;8.65;;;2.60;;
64252;SDS011;50592;52.958;-7.470;2023-04-26T13:24:45;5.82;;;2.28;;
64252;SDS011;50592;52.958;-7.470;2023-04-26T13:27:11;13.52;;;3.00;;
64252;SDS011;50592;52.958;-7.470;2023-04-26T13:29:37;9.60;;;2.50;;
64252;SDS011;50592;52.958;-7.470;2023-04-26T13:32:04;7.03;;;2.28;;
64252;SDS011;50592;52.958;-7.470;2023-04-26T13:34:30;6.35;;;2.20;;
64252;SDS011;50592;52.958;-7.470;2023-04-26T13:36:55;11.55;;;2.78;;
64252;SDS011;50592;52.958;-7.470;2023-04-26T13:39:22;9.73;;;2.50;;
64252;SDS011;50592;52.958;-7.470;2023-04-26T13:41:49;7.72;;;2.67;;
64252;SDS011;50592;52.958;-7.470;2023-04-26T13:44:15;8.50;;;2.20;;
64252;SDS011;50592;52.958;-7.470;2023-04-26T13:46:41;9.35;;;2.25;;
64252;SDS011;50592;52.958;-7.470;2023-04-26T13:49:07;8.43;;;2.08;;
64252;SDS011;50592;52.958;-7.470;2023-04-26T13:51:36;7.40;;;2.47;;
64252;SDS011;50592;52.958;-7.470;2023-04-26T13:54:02;10.13;;;2.70;;
64252;SDS011;50592;52.958;-7.470;2023-04-26T13:56:30;7.22;;;2.45;;
64252;SDS011;50592;52.958;-7.470;2023-04-26T13:58:58;10.73;;;3.58;;
64252;SDS011;50592;52.958;-7.470;2023-04-26T14:01:27;7.95;;;2.25;;
64252;SDS011;50592;52.958;-7.470;2023-04-26T14:03:54;11.68;;;2.65;;
64252;SDS011;50592;52.958;-7.470;2023-04-26T14:06:20;8.57;;;2.83;;
64252;SDS011;50592;52.958;-7.470;2023-04-26T14:08:45;8.82;;;2.53;;
64252;SDS011;50592;52.958;-7.470;2023-04-26T14:11:11;11.88;;;2.03;;
64252;SDS011;50592;52.958;-7.470;2023-04-26T14:13:38;7.70;;;2.47;;
64252;SDS011;50592;52.958;-7.470;2023-04-26T14:16:05;10.68;;;2.72;;
64252;SDS011;50592;52.958;-7.470;2023-04-26T14:18:31;10.80;;;2.90;;
64252;SDS011;50592;52.958;-7.470;2023-04-26T14:20:57;10.77;;;2.92;;
64252;SDS011;50592;52.958;-7.470;2023-04-26T14:23:22;8.85;;;2.53;;
64252;SDS011;50592;52.958;-7.470;2023-04-26T14:25:52;8.95;;;2.17;;
64252;SDS011;50592;52.958;-7.470;2023-04-26T14:28:18;9.52;;;2.30;;
64252;SDS011;50592;52.958;-7.470;2023-04-26T14:30:45;10.98;;;2.90;;
64252;SDS011;50592;52.958;-7.470;2023-04-26T14:33:11;11.20;;;2.85;;
64252;SDS011;50592;52.958;-7.470;2023-04-26T14:35:37;9.00;;;2.40;;
64252;SDS011;50592;52.958;-7.470;2023-04-26T14:38:03;9.77;;;3.10;;
64252;SDS011;50592;52.958;-7.470;2023-04-26T14:40:29;8.98;;;2.42;;
64252;SDS011;50592;52.958;-7.470;2023-04-26T14:42:55;9.07;;;3.30;;
64252;SDS011;50592;52.958;-7.470;2023-04-26T14:45:21;11.55;;;2.97;;
64252;SDS011;50592;52.958;-7.470;2023-04-26T14:47:47;7.82;;;2.67;;
64252;SDS011;50592;52.958;-7.470;2023-04-26T14:50:12;8.68;;;2.83;;
64252;SDS011;50592;52.958;-7.470;2023-04-26T14:52:39;8.82;;;2.90;;
64252;SDS011;50592;52.958;-7.470;2023-04-26T14:55:05;7.07;;;2.35;;
64252;SDS011;50592;52.958;-7.470;2023-04-26T14:57:31;10.20;;;2.28;;
64252;SDS011;50592;52.958;-7.470;2023-04-26T14:59:59;14.95;;;3.22;;